Oakland, California
Current Conditions -  °F | °C
As of 10:53 PM on Saturday 25 Oct 2014 (Local Time) from KOAK Reporting Station
Broken Clouds Broken Clouds  
Wind Chill: 17°   Ceiling: 10000
Heat Index: 17°   Visibility: 10mi
Dew Point: 13°   Wind: 8mph
Humidity: 78%   Direction: 290°WNW
Pressure: 30.14"   Gusts: NA
Location:  37.81°N, 122.27°W
Report Text: KOAK 260553Z 29007KT 10SM FEW020 BKN100 17/13 A3014 RMK AO2 SLP205 T01670128 10194 20167 51014
Loading
Personal Weather Stations






























Interactive Weather Map
Tropical Storm Tracking
New forecast layout! Learn more

10-Day Weather Forecast

Advertisements
Track Severe Weather on mobile